createdAt,value
2019-04-21T00:01:57.896Z,31.65
2019-04-21T00:04:39.229Z,32.13
2019-04-21T00:07:14.455Z,32.87
2019-04-21T00:12:18.066Z,36.60
2019-04-21T00:14:39.719Z,35.65
2019-04-21T00:17:06.027Z,36.38
2019-04-21T00:19:36.762Z,34.40
2019-04-21T00:22:14.933Z,32.50
2019-04-21T00:24:50.715Z,34.27
2019-04-21T00:27:21.221Z,38.28
2019-04-21T00:29:52.061Z,39.10
2019-04-21T00:32:20.700Z,36.20
2019-04-21T00:34:36.235Z,34.67
2019-04-21T00:37:15.796Z,31.95
2019-04-21T00:40:13.214Z,32.78
2019-04-21T00:42:25.194Z,32.35
2019-04-21T00:44:54.109Z,33.78
2019-04-21T00:47:30.600Z,30.68
2019-04-21T00:50:02.028Z,27.82
2019-04-21T00:52:51.290Z,28.65
2019-04-21T00:55:27.881Z,27.00
2019-04-21T00:57:57.097Z,25.88
2019-04-21T01:00:23.304Z,24.90
2019-04-21T01:02:57.617Z,23.40
2019-04-21T01:05:22.070Z,24.02
2019-04-21T01:07:56.237Z,24.77
2019-04-21T01:10:14.875Z,23.00
2019-04-21T01:12:55.584Z,22.42
2019-04-21T01:15:32.309Z,21.93
2019-04-21T01:17:54.639Z,20.32
2019-04-21T01:20:16.058Z,20.88
2019-04-21T01:22:32.606Z,19.62
2019-04-21T01:25:09.949Z,19.95
2019-04-21T01:27:52.191Z,19.27
2019-04-21T01:30:23.736Z,20.48
2019-04-21T01:32:53.308Z,19.92
2019-04-21T01:35:21.237Z,19.95
2019-04-21T01:40:31.959Z,19.60
2019-04-21T01:42:58.611Z,19.00
2019-04-21T01:45:21.876Z,21.20
2019-04-21T01:47:50.675Z,20.92
2019-04-21T01:50:27.462Z,21.62
2019-04-21T01:53:02.374Z,21.97
2019-04-21T01:55:52.819Z,23.27
2019-04-21T01:58:15.443Z,20.77
2019-04-21T02:00:57.199Z,20.72
2019-04-21T02:03:54.468Z,20.32
2019-04-21T02:06:11.135Z,20.43
2019-04-21T02:08:34.343Z,20.82
2019-04-21T02:11:12.635Z,22.63
2019-04-21T02:13:41.928Z,23.57
2019-04-21T02:16:06.500Z,26.30
2019-04-21T02:18:34.971Z,26.65
2019-04-21T02:20:52.831Z,26.40
2019-04-21T02:26:10.828Z,25.23
2019-04-21T02:28:51.658Z,24.32
2019-04-21T02:33:55.923Z,22.55
2019-04-21T02:36:45.924Z,26.10
2019-04-21T02:38:57.797Z,26.05
2019-04-21T02:41:15.761Z,24.47
2019-04-21T02:43:58.210Z,27.05
2019-04-21T02:46:27.428Z,26.43
2019-04-21T02:48:56.172Z,25.70
2019-04-21T02:51:21.827Z,26.77
2019-04-21T02:54:24.489Z,24.50
2019-04-21T02:56:24.721Z,24.50
2019-04-21T02:59:02.464Z,23.92
2019-04-21T03:01:46.211Z,25.37
2019-04-21T03:04:10.482Z,26.03
2019-04-21T03:07:03.743Z,26.95
2019-04-21T03:12:04.862Z,27.55
2019-04-21T03:14:40.970Z,27.48
2019-04-21T03:16:58.995Z,27.33
2019-04-21T03:19:36.520Z,29.82
2019-04-21T03:21:58.340Z,29.40
2019-04-21T03:24:29.435Z,31.07
2019-04-21T03:27:10.375Z,27.87
2019-04-21T03:29:46.119Z,26.17
2019-04-21T03:39:30.967Z,26.87
2019-04-21T03:44:34.821Z,27.32
2019-04-21T03:52:03.348Z,41.00
2019-04-21T03:54:37.322Z,43.77
2019-04-21T03:57:25.598Z,40.48
2019-04-21T03:59:24.683Z,40.33
2019-04-21T04:02:14.762Z,38.53
2019-04-21T04:04:45.442Z,34.47
2019-04-21T04:07:32.988Z,34.78
2019-04-21T04:10:02.510Z,33.38
2019-04-21T04:12:32.854Z,33.40
2019-04-21T04:17:26.106Z,40.58
2019-04-21T04:22:37.830Z,75.37
2019-04-21T04:27:49.231Z,40.30
2019-04-21T04:30:08.376Z,29.90
2019-04-21T04:32:42.775Z,31.60
2019-04-21T04:40:10.914Z,25.50
2019-04-21T04:42:46.255Z,28.45
2019-04-21T04:45:15.730Z,28.52
2019-04-21T04:47:47.330Z,40.20
2019-04-21T04:49:59.695Z,36.68
2019-04-21T04:52:38.023Z,34.43
2019-04-21T04:55:06.523Z,24.05
2019-04-21T04:57:49.157Z,22.30
2019-04-21T05:02:40.334Z,20.65
2019-04-21T05:05:17.317Z,20.17
2019-04-21T05:07:44.652Z,19.58
2019-04-21T05:10:07.525Z,19.77
2019-04-21T05:12:38.510Z,21.15
2019-04-21T05:15:09.743Z,19.37
2019-04-21T05:18:07.192Z,19.27
2019-04-21T05:20:13.167Z,20.17
2019-04-21T05:22:35.361Z,19.48
2019-04-21T05:24:58.016Z,21.57
2019-04-21T05:27:31.531Z,24.17
2019-04-21T05:30:17.306Z,20.15
2019-04-21T05:32:45.173Z,20.50
2019-04-21T05:35:14.614Z,18.25
2019-04-21T05:37:58.625Z,18.15
2019-04-21T05:40:24.878Z,18.77
2019-04-21T05:42:55.718Z,20.05
2019-04-21T05:45:50.002Z,19.23
2019-04-21T05:48:12.162Z,19.60
2019-04-21T05:50:30.435Z,18.27
2019-04-21T05:52:53.574Z,18.92
2019-04-21T05:55:36.022Z,17.60
2019-04-21T05:58:03.661Z,16.45
2019-04-21T06:00:59.305Z,17.02
2019-04-21T06:03:09.911Z,17.37
2019-04-21T06:05:47.913Z,18.67
2019-04-21T06:08:09.968Z,16.20
2019-04-21T06:10:41.902Z,16.15
2019-04-21T06:13:13.695Z,16.37
2019-04-21T06:15:45.513Z,16.77
2019-04-21T06:18:12.988Z,17.60
2019-04-21T06:20:40.653Z,17.62
2019-04-21T06:23:11.531Z,16.40
2019-04-21T06:25:54.558Z,17.30
2019-04-21T06:28:14.897Z,16.97
2019-04-21T06:30:52.790Z,18.12
2019-04-21T06:33:15.632Z,16.40
2019-04-21T06:36:07.737Z,16.40
2019-04-21T06:38:23.444Z,16.87
2019-04-21T06:40:51.167Z,15.97
2019-04-21T06:43:25.845Z,16.40
2019-04-21T06:45:55.691Z,18.77
2019-04-21T06:48:20.334Z,21.07
2019-04-21T06:50:52.892Z,22.05
2019-04-21T06:53:20.697Z,17.02
2019-04-21T06:55:47.573Z,18.15
2019-04-21T06:58:22.158Z,16.15
2019-04-21T07:00:47.678Z,40.10
2019-04-21T07:03:29.745Z,21.40
2019-04-21T07:05:57.271Z,23.02
2019-04-21T07:08:29.368Z,17.45
2019-04-21T07:10:52.016Z,23.45
2019-04-21T07:13:19.201Z,15.98
2019-04-21T07:15:53.902Z,21.13
2019-04-21T07:18:19.159Z,16.12
2019-04-21T07:20:58.115Z,15.93
2019-04-21T07:23:24.072Z,15.63
2019-04-21T07:25:52.904Z,15.03
2019-04-21T07:28:25.594Z,13.35
2019-04-21T07:30:59.428Z,16.90
2019-04-21T07:33:49.291Z,14.13
2019-04-21T07:35:51.799Z,14.53
2019-04-21T07:38:24.525Z,13.10
2019-04-21T07:40:50.054Z,17.37
2019-04-21T07:43:18.185Z,12.82
2019-04-21T07:45:51.642Z,15.18
2019-04-21T07:48:26.312Z,12.68
2019-04-21T07:51:11.089Z,14.10
2019-04-21T07:53:49.900Z,16.57
2019-04-21T07:55:53.740Z,14.45
2019-04-21T07:58:47.605Z,11.67
2019-04-21T08:01:14.349Z,13.48
2019-04-21T08:03:38.904Z,11.93
2019-04-21T08:06:18.912Z,12.93
2019-04-21T08:08:43.538Z,11.75
2019-04-21T08:11:10.903Z,14.65
2019-04-21T08:16:10.965Z,11.10
2019-04-21T08:18:58.285Z,11.93
2019-04-21T08:21:10.715Z,13.07
2019-04-21T08:23:41.699Z,15.08
2019-04-21T08:26:30.805Z,18.27
2019-04-21T08:28:48.993Z,13.53
2019-04-21T08:31:17.831Z,13.45
2019-04-21T08:33:49.645Z,12.37
2019-04-21T08:40:07.433Z,12.10
2019-04-21T08:42:27.024Z,10.97
2019-04-21T08:45:03.968Z,12.80
2019-04-21T08:47:28.482Z,16.40
2019-04-21T08:49:53.600Z,13.25
2019-04-21T08:52:41.166Z,14.05
2019-04-21T08:55:08.759Z,13.45
2019-04-21T08:58:00.841Z,13.03
2019-04-21T09:00:27.258Z,11.63
2019-04-21T09:02:58.882Z,14.63
2019-04-21T09:05:26.186Z,11.00
2019-04-21T09:08:00.114Z,12.43
2019-04-21T09:10:33.076Z,11.00
2019-04-21T09:13:00.153Z,12.00
2019-04-21T09:15:24.986Z,13.30
2019-04-21T09:17:53.609Z,13.20
2019-04-21T09:20:32.574Z,12.65
2019-04-21T09:23:00.782Z,12.83
2019-04-21T09:25:33.390Z,12.00
2019-04-21T09:28:01.271Z,8.07
2019-04-21T09:30:13.027Z,7.05
2019-04-21T09:32:42.479Z,7.55
2019-04-21T09:35:14.808Z,7.43
2019-04-21T09:37:51.710Z,5.50
2019-04-21T09:40:13.956Z,6.17
2019-04-21T09:42:53.102Z,6.67
2019-04-21T09:45:14.356Z,6.90
2019-04-21T09:47:51.003Z,6.72
2019-04-21T09:50:13.520Z,5.73
2019-04-21T09:52:50.115Z,6.70
2019-04-21T09:55:17.880Z,5.87
2019-04-21T09:57:49.562Z,6.53
2019-04-21T10:00:19.501Z,6.70
2019-04-21T10:02:53.470Z,5.75
2019-04-21T10:05:14.567Z,5.57
2019-04-21T10:07:44.291Z,6.92
2019-04-21T10:10:14.918Z,7.67
2019-04-21T10:12:43.511Z,7.00
2019-04-21T10:15:12.280Z,6.63
2019-04-21T10:17:45.158Z,8.90
2019-04-21T10:20:14.059Z,5.70
2019-04-21T10:22:42.629Z,9.03
2019-04-21T10:25:12.712Z,9.83
2019-04-21T10:27:41.355Z,5.75
2019-04-21T10:30:11.976Z,5.78
2019-04-21T10:32:42.677Z,6.13
2019-04-21T10:35:15.261Z,6.10
2019-04-21T10:37:53.649Z,6.37
2019-04-21T10:40:15.846Z,4.40
2019-04-21T10:42:44.412Z,4.83
2019-04-21T10:45:13.226Z,5.17
2019-04-21T10:47:43.064Z,4.67
2019-04-21T10:50:13.076Z,4.03
2019-04-21T10:53:00.840Z,3.20
2019-04-21T10:55:44.608Z,3.20
2019-04-21T10:58:10.841Z,3.80
2019-04-21T11:00:42.086Z,3.60
2019-04-21T11:03:31.129Z,3.10
2019-04-21T11:06:03.912Z,6.70
2019-04-21T11:08:37.670Z,3.83
2019-04-21T11:11:03.770Z,3.40
2019-04-21T11:13:32.692Z,4.00
2019-04-21T11:16:01.502Z,4.15
2019-04-21T11:18:31.522Z,3.37
2019-04-21T11:21:00.722Z,3.83
2019-04-21T11:23:29.328Z,3.95
2019-04-21T11:25:58.112Z,3.70
2019-04-21T11:28:27.255Z,3.22
2019-04-21T11:30:57.151Z,3.10
2019-04-21T11:33:27.036Z,3.40
2019-04-21T11:35:55.687Z,3.30
2019-04-21T11:39:00.845Z,2.83
2019-04-21T11:41:13.797Z,2.60
2019-04-21T11:43:43.259Z,3.37
2019-04-21T11:46:12.781Z,3.00
2019-04-21T11:48:42.139Z,3.50
2019-04-21T11:51:11.056Z,2.55
2019-04-21T11:53:40.996Z,4.65
2019-04-21T11:56:09.796Z,2.42
2019-04-21T11:58:39.448Z,3.50
2019-04-21T12:01:09.502Z,2.72
2019-04-21T12:03:38.139Z,4.33
2019-04-21T12:06:06.979Z,4.70
2019-04-21T12:08:41.291Z,5.35
2019-04-21T12:11:07.294Z,2.52
2019-04-21T12:13:36.241Z,2.60
2019-04-21T12:16:05.585Z,2.87
2019-04-21T12:18:34.122Z,3.20
2019-04-21T12:21:03.295Z,8.58
2019-04-21T12:23:32.378Z,5.20
2019-04-21T12:26:01.301Z,8.10
2019-04-21T12:28:30.380Z,11.60
2019-04-21T12:31:00.065Z,5.00
2019-04-21T12:33:43.497Z,4.97
2019-04-21T12:36:13.673Z,3.85
2019-04-21T12:38:48.845Z,3.25
2019-04-21T12:41:12.943Z,4.67
2019-04-21T12:43:42.544Z,8.80
2019-04-21T12:46:11.958Z,7.35
2019-04-21T12:48:41.980Z,5.95
2019-04-21T12:51:12.157Z,4.45
2019-04-21T12:53:41.570Z,8.60
2019-04-21T12:56:11.626Z,4.25
2019-04-21T12:58:41.564Z,3.22
2019-04-21T13:01:10.403Z,2.43
2019-04-21T13:03:39.743Z,2.67
2019-04-21T13:06:09.767Z,2.50
2019-04-21T13:08:49.084Z,3.75
2019-04-21T13:11:09.693Z,4.60
2019-04-21T13:13:39.865Z,3.47
2019-04-21T13:16:09.622Z,2.42
2019-04-21T13:18:39.594Z,3.08
2019-04-21T13:21:08.171Z,2.77
2019-04-21T13:23:36.978Z,2.87
2019-04-21T13:26:06.683Z,4.90
2019-04-21T13:28:37.537Z,2.77
2019-04-21T13:31:06.531Z,2.50
2019-04-21T13:33:35.282Z,2.92
2019-04-21T13:36:05.006Z,2.20
2019-04-21T13:38:40.522Z,3.22
2019-04-21T13:41:24.705Z,2.87
2019-04-21T13:43:37.188Z,2.30
2019-04-21T13:46:06.090Z,2.20
2019-04-21T13:48:34.871Z,2.60
2019-04-21T13:51:05.312Z,2.75
2019-04-21T13:53:34.911Z,4.77
2019-04-21T13:56:06.695Z,2.72
2019-04-21T13:58:35.363Z,2.40
2019-04-21T14:01:03.835Z,2.60
2019-04-21T14:03:33.400Z,2.50
2019-04-21T14:06:02.522Z,2.40
2019-04-21T14:08:31.381Z,9.60
2019-04-21T14:10:59.955Z,5.30
2019-04-21T14:13:32.274Z,3.10
2019-04-21T14:16:02.145Z,3.20
2019-04-21T14:18:31.007Z,4.08
2019-04-21T14:21:00.908Z,2.65
2019-04-21T14:23:36.007Z,2.45
2019-04-21T14:25:59.791Z,2.30
2019-04-21T14:28:28.339Z,2.85
2019-04-21T14:30:56.813Z,3.12
2019-04-21T14:33:25.699Z,2.72
2019-04-21T14:35:54.742Z,3.00
2019-04-21T14:38:24.796Z,2.83
2019-04-21T14:40:54.393Z,2.05
2019-04-21T14:43:23.731Z,2.72
2019-04-21T14:46:11.057Z,3.00
2019-04-21T14:48:48.679Z,2.47
2019-04-21T14:51:36.899Z,2.10
2019-04-21T14:54:08.006Z,2.47
2019-04-21T14:56:37.454Z,2.37
2019-04-21T14:59:07.244Z,2.20
2019-04-21T15:01:36.005Z,2.58
2019-04-21T15:04:05.883Z,2.05
2019-04-21T15:06:34.414Z,3.33
2019-04-21T15:09:04.983Z,2.20
2019-04-21T15:11:33.818Z,2.40
2019-04-21T15:14:02.341Z,1.92
2019-04-21T15:16:32.894Z,3.02
2019-04-21T15:19:02.442Z,2.37
2019-04-21T15:21:31.288Z,3.22
2019-04-21T15:24:00.411Z,5.73
2019-04-21T15:26:30.211Z,5.20
2019-04-21T15:28:59.235Z,3.37
2019-04-21T15:31:33.873Z,3.77
2019-04-21T15:33:59.174Z,2.05
2019-04-21T15:36:31.548Z,2.40
2019-04-21T15:38:58.061Z,2.10
2019-04-21T15:41:26.812Z,2.10
2019-04-21T15:43:56.465Z,2.60
2019-04-21T15:46:26.772Z,2.42
2019-04-21T15:48:55.382Z,4.65
2019-04-21T15:51:24.024Z,2.97
2019-04-21T15:53:52.746Z,4.40
2019-04-21T15:56:28.932Z,4.72
2019-04-21T15:58:59.061Z,2.80
2019-04-21T16:01:50.559Z,2.67
2019-04-21T16:04:19.165Z,2.50
2019-04-21T16:06:47.871Z,3.95
2019-04-21T16:09:21.307Z,3.53
2019-04-21T16:11:46.615Z,1.90
2019-04-21T16:14:16.563Z,2.87
2019-04-21T16:16:45.452Z,2.70
2019-04-21T16:19:14.383Z,2.95
2019-04-21T16:21:46.086Z,2.80
2019-04-21T16:24:14.292Z,2.40
2019-04-21T16:26:44.302Z,2.25
2019-04-21T16:29:13.283Z,2.30
2019-04-21T16:31:42.710Z,2.42
2019-04-21T16:34:11.303Z,3.15
2019-04-21T16:36:39.837Z,6.03
2019-04-21T16:39:09.490Z,5.90
2019-04-21T16:41:38.461Z,6.67
2019-04-21T16:44:07.310Z,5.37
2019-04-21T16:46:35.804Z,4.22
2019-04-21T16:49:05.086Z,3.33
2019-04-21T16:51:33.915Z,4.25
2019-04-21T16:54:04.107Z,3.40
2019-04-21T16:56:37.513Z,5.40
2019-04-21T16:59:10.524Z,3.83
2019-04-21T17:01:40.559Z,5.22
2019-04-21T17:04:10.677Z,10.88
2019-04-21T17:06:40.788Z,10.40
2019-04-21T17:09:10.635Z,12.65
2019-04-21T17:11:41.939Z,11.70
2019-04-21T17:14:27.215Z,7.38
2019-04-21T17:17:02.803Z,8.20
2019-04-21T17:19:20.276Z,10.03
2019-04-21T17:21:41.833Z,9.87
2019-04-21T17:24:10.592Z,10.15
2019-04-21T17:26:41.281Z,8.85
2019-04-21T17:29:10.442Z,9.98
2019-04-21T17:31:39.408Z,11.80
2019-04-21T17:34:13.843Z,13.10
2019-04-21T17:36:39.299Z,14.70
2019-04-21T17:39:11.128Z,17.98
2019-04-21T17:41:55.473Z,31.43
2019-04-21T17:44:11.134Z,31.10
2019-04-21T17:46:46.546Z,42.88
2019-04-21T17:49:12.713Z,44.03
2019-04-21T17:54:26.515Z,46.13
2019-04-21T17:57:15.320Z,40.80
2019-04-21T17:59:51.045Z,35.43
2019-04-21T18:02:09.399Z,56.40
2019-04-21T18:04:42.676Z,41.23
2019-04-21T18:07:26.129Z,48.92
2019-04-21T18:10:02.847Z,52.50
2019-04-21T18:12:26.216Z,50.08
2019-04-21T18:14:51.515Z,56.23
2019-04-21T18:17:10.862Z,52.20
2019-04-21T18:19:43.315Z,48.05
2019-04-21T18:22:17.493Z,41.53
2019-04-21T18:24:56.981Z,40.17
2019-04-21T18:27:19.708Z,39.10
2019-04-21T18:29:52.489Z,38.33
2019-04-21T18:32:26.446Z,36.28
2019-04-21T18:35:11.567Z,36.85
2019-04-21T18:37:51.634Z,36.23
2019-04-21T18:40:27.396Z,36.33
2019-04-21T18:43:32.637Z,32.20
2019-04-21T18:46:02.172Z,32.93
2019-04-21T18:48:18.932Z,32.48
2019-04-21T18:50:51.098Z,30.88
2019-04-21T18:53:40.123Z,30.72
2019-04-21T18:55:59.964Z,34.27
2019-04-21T18:58:24.191Z,32.90
2019-04-21T19:00:56.906Z,28.87
2019-04-21T19:03:28.155Z,30.00
2019-04-21T19:06:01.716Z,28.45
2019-04-21T19:08:51.388Z,26.27
2019-04-21T19:11:15.111Z,30.43
2019-04-21T19:14:17.691Z,44.25
2019-04-21T19:16:33.153Z,75.85
2019-04-21T19:19:22.706Z,84.42
2019-04-21T19:21:24.212Z,85.25
2019-04-21T19:24:10.715Z,72.83
2019-04-21T19:26:39.813Z,71.90
2019-04-21T19:29:03.287Z,53.13
2019-04-21T19:31:38.485Z,48.02
2019-04-21T19:33:57.398Z,47.03
2019-04-21T19:36:15.351Z,51.00
2019-04-21T19:38:55.970Z,50.92
2019-04-21T19:41:28.178Z,48.90
2019-04-21T19:44:02.553Z,47.30
2019-04-21T19:46:33.346Z,47.75
2019-04-21T19:49:13.465Z,49.77
2019-04-21T19:51:33.000Z,67.03
2019-04-21T19:53:58.021Z,91.92
2019-04-21T19:56:16.586Z,79.75
2019-04-21T19:58:47.356Z,93.75
2019-04-21T20:01:15.426Z,102.20
2019-04-21T20:03:48.603Z,103.87
2019-04-21T20:06:30.135Z,96.83
2019-04-21T20:09:04.130Z,83.58
2019-04-21T20:11:34.664Z,83.10
2019-04-21T20:14:35.689Z,80.80
2019-04-21T20:16:37.387Z,76.10
2019-04-21T20:18:54.156Z,77.62
2019-04-21T20:21:16.369Z,77.78
2019-04-21T20:23:46.610Z,85.33
2019-04-21T20:26:17.044Z,92.97
2019-04-21T20:28:56.619Z,100.12
2019-04-21T20:31:30.076Z,107.30
2019-04-21T20:34:05.307Z,104.12
2019-04-21T20:36:35.440Z,111.25
2019-04-21T20:38:53.547Z,112.55
2019-04-21T20:41:26.991Z,109.37
2019-04-21T20:44:06.266Z,108.07
2019-04-21T20:46:36.620Z,106.40
2019-04-21T20:49:02.746Z,106.47
2019-04-21T20:51:37.889Z,106.80
2019-04-21T20:54:01.515Z,105.80
2019-04-21T20:56:39.487Z,107.20
2019-04-21T20:59:10.523Z,83.97
2019-04-21T21:01:39.790Z,109.78
2019-04-21T21:04:06.351Z,106.53
2019-04-21T21:06:36.019Z,106.77
2019-04-21T21:09:07.418Z,109.32
2019-04-21T21:11:43.452Z,109.03
2019-04-21T21:14:11.790Z,111.85
2019-04-21T21:16:48.966Z,111.80
2019-04-21T21:21:34.487Z,104.75
2019-04-21T21:24:10.271Z,109.50
2019-04-21T21:26:44.015Z,107.00
2019-04-21T21:29:03.251Z,101.25
2019-04-21T21:31:41.683Z,100.05
2019-04-21T21:34:16.550Z,100.65
2019-04-21T21:36:43.456Z,90.40
2019-04-21T21:39:14.095Z,88.85
2019-04-21T21:41:31.544Z,92.97
2019-04-21T21:44:01.857Z,90.32
2019-04-21T21:46:43.078Z,83.60
2019-04-21T21:49:05.044Z,85.77
2019-04-21T21:51:41.232Z,82.12
2019-04-21T21:53:57.058Z,85.77
2019-04-21T21:56:26.749Z,85.90
2019-04-21T21:58:56.968Z,84.13
2019-04-21T22:01:31.843Z,91.30
2019-04-21T22:04:07.234Z,98.07
2019-04-21T22:06:38.669Z,116.40
2019-04-21T22:08:58.534Z,96.45
2019-04-21T22:11:27.197Z,110.08
2019-04-21T22:14:02.785Z,112.12
2019-04-21T22:16:38.938Z,112.95
2019-04-21T22:19:13.286Z,116.40
2019-04-21T22:21:49.434Z,123.97
2019-04-21T22:24:05.714Z,123.77
2019-04-21T22:26:27.325Z,117.90
2019-04-21T22:28:55.936Z,120.77
2019-04-21T22:31:29.985Z,121.95
2019-04-21T22:34:00.325Z,121.02
2019-04-21T22:36:36.123Z,118.33
2019-04-21T22:39:13.464Z,113.07
2019-04-21T22:41:33.729Z,110.17
2019-04-21T22:43:59.002Z,110.37
2019-04-21T22:46:26.340Z,107.87
2019-04-21T22:48:59.747Z,105.78
2019-04-21T22:51:34.776Z,107.10
2019-04-21T22:53:57.591Z,101.90
2019-04-21T22:56:30.076Z,102.67
2019-04-21T22:58:57.132Z,96.08
2019-04-21T23:01:34.866Z,102.50
2019-04-21T23:04:00.563Z,98.87
2019-04-21T23:06:30.824Z,96.03
2019-04-21T23:08:57.081Z,89.77
2019-04-21T23:11:28.063Z,88.97
2019-04-21T23:14:04.032Z,86.87
2019-04-21T23:16:32.230Z,81.30
2019-04-21T23:19:15.955Z,68.28
2019-04-21T23:21:48.927Z,72.40
2019-04-21T23:24:16.180Z,59.42
2019-04-21T23:26:44.877Z,51.08
2019-04-21T23:29:21.190Z,45.10
2019-04-21T23:31:47.886Z,39.98
2019-04-21T23:34:00.061Z,38.40
2019-04-21T23:36:32.194Z,34.85
2019-04-21T23:38:58.870Z,34.33
2019-04-21T23:41:36.151Z,32.97
2019-04-21T23:44:02.933Z,34.33
2019-04-21T23:46:31.955Z,33.10
2019-04-21T23:49:15.147Z,31.87
2019-04-21T23:51:40.774Z,29.80
2019-04-21T23:53:59.529Z,30.32
2019-04-21T23:56:34.076Z,39.42
2019-04-21T23:59:03.310Z,41.85
